createdAt,value
2022-09-22T00:01:25.780Z,3.40
2022-09-22T00:03:56.284Z,3.70
2022-09-22T00:06:26.351Z,4.63
2022-09-22T00:08:56.099Z,5.07
2022-09-22T00:11:25.520Z,4.00
2022-09-22T00:13:56.472Z,3.80
2022-09-22T00:16:28.233Z,3.50
2022-09-22T00:18:56.214Z,3.63
2022-09-22T00:21:27.917Z,3.80
2022-09-22T00:23:56.495Z,3.43
2022-09-22T00:26:25.697Z,3.40
2022-09-22T00:28:53.732Z,4.00
2022-09-22T00:31:24.020Z,3.90
2022-09-22T00:33:55.135Z,4.33
2022-09-22T00:36:25.730Z,3.47
2022-09-22T00:38:55.598Z,4.07
2022-09-22T00:41:25.584Z,3.40
2022-09-22T00:44:34.463Z,4.00
2022-09-22T00:47:07.466Z,4.80
2022-09-22T00:49:43.287Z,4.73
2022-09-22T00:52:12.661Z,5.37
2022-09-22T00:54:40.701Z,3.53
2022-09-22T00:57:13.077Z,3.70
2022-09-22T00:59:42.854Z,3.67
2022-09-22T01:02:12.075Z,4.97
2022-09-22T01:04:42.896Z,3.60
2022-09-22T01:07:13.390Z,4.10
2022-09-22T01:09:41.350Z,4.10
2022-09-22T01:12:09.720Z,4.33
2022-09-22T01:14:52.776Z,4.00
2022-09-22T01:17:34.463Z,3.57
2022-09-22T01:20:26.993Z,4.90
2022-09-22T01:23:25.312Z,4.07
2022-09-22T01:26:13.451Z,4.20
2022-09-22T01:29:03.517Z,4.17
2022-09-22T01:31:38.948Z,3.90
2022-09-22T01:34:13.104Z,4.60
2022-09-22T01:39:27.631Z,4.10
2022-09-22T01:42:02.965Z,5.00
2022-09-22T01:44:35.512Z,3.60
2022-09-22T01:47:10.264Z,3.83
2022-09-22T01:49:44.031Z,4.40
2022-09-22T01:52:17.786Z,5.43
2022-09-22T01:54:51.325Z,3.47
2022-09-22T01:57:25.164Z,4.20
2022-09-22T01:59:57.264Z,5.93
2022-09-22T02:02:33.198Z,3.67
2022-09-22T02:05:06.244Z,4.83
2022-09-22T02:07:40.044Z,4.10
2022-09-22T02:10:11.436Z,4.28
2022-09-22T02:12:40.176Z,4.93
2022-09-22T02:15:30.157Z,4.07
2022-09-22T02:18:06.689Z,4.00
2022-09-22T02:20:35.538Z,4.33
2022-09-22T02:23:03.621Z,4.10
2022-09-22T02:25:32.173Z,5.70
2022-09-22T02:28:00.681Z,4.93
2022-09-22T02:30:29.490Z,4.20
2022-09-22T02:32:59.804Z,5.70
2022-09-22T02:35:31.631Z,5.47
2022-09-22T02:38:05.610Z,4.13
2022-09-22T02:40:45.065Z,4.30
2022-09-22T02:43:19.759Z,4.37
2022-09-22T02:45:54.805Z,4.27
2022-09-22T02:48:27.080Z,4.50
2022-09-22T02:50:56.179Z,5.37
2022-09-22T02:53:24.430Z,4.23
2022-09-22T02:55:52.381Z,5.03
2022-09-22T02:58:20.305Z,4.80
2022-09-22T03:00:48.428Z,4.50
2022-09-22T03:03:16.341Z,4.87
2022-09-22T03:05:45.713Z,4.87
2022-09-22T03:08:13.634Z,4.50
2022-09-22T03:10:41.689Z,4.07
2022-09-22T03:13:16.465Z,3.90
2022-09-22T03:15:45.768Z,4.37
2022-09-22T03:18:14.254Z,4.83
2022-09-22T03:20:42.540Z,4.77
2022-09-22T03:23:11.893Z,4.67
2022-09-22T03:25:40.070Z,6.73
2022-09-22T03:28:08.012Z,4.70
2022-09-22T03:30:37.382Z,4.10
2022-09-22T03:33:05.709Z,4.43
2022-09-22T03:35:33.651Z,4.17
2022-09-22T03:38:01.579Z,4.33
2022-09-22T03:40:31.044Z,4.57
2022-09-22T03:42:58.980Z,4.50
2022-09-22T03:45:28.252Z,4.57
2022-09-22T03:47:56.220Z,4.33
2022-09-22T03:50:24.117Z,4.20
2022-09-22T03:52:52.056Z,4.60
2022-09-22T03:55:20.065Z,4.40
2022-09-22T03:57:49.448Z,4.10
2022-09-22T04:00:18.180Z,4.37
2022-09-22T04:02:46.259Z,4.50
2022-09-22T04:05:14.433Z,6.10
2022-09-22T04:07:42.848Z,5.57
2022-09-22T04:10:10.998Z,5.40
2022-09-22T04:12:38.933Z,5.47
2022-09-22T04:15:10.505Z,4.33
2022-09-22T04:17:38.805Z,5.37
2022-09-22T04:20:08.741Z,5.83
2022-09-22T04:22:37.613Z,5.17
2022-09-22T04:25:06.863Z,4.50
2022-09-22T04:27:34.975Z,6.03
2022-09-22T04:30:03.286Z,5.13
2022-09-22T04:32:32.624Z,5.00
2022-09-22T04:35:00.597Z,5.07
2022-09-22T04:37:29.126Z,5.77
2022-09-22T04:39:57.927Z,4.80
2022-09-22T04:42:26.138Z,4.60
2022-09-22T04:44:57.280Z,5.13
2022-09-22T04:47:25.520Z,4.60
2022-09-22T04:49:55.010Z,5.40
2022-09-22T04:52:23.266Z,5.43
2022-09-22T04:54:51.355Z,5.87
2022-09-22T04:57:20.569Z,5.07
2022-09-22T04:59:48.756Z,4.70
2022-09-22T05:02:16.760Z,4.97
2022-09-22T05:04:44.726Z,4.87
2022-09-22T05:07:15.036Z,7.60
2022-09-22T05:09:43.397Z,6.13
2022-09-22T05:12:11.329Z,6.77
2022-09-22T05:14:39.262Z,6.30
2022-09-22T05:17:07.322Z,7.47
2022-09-22T05:19:35.259Z,6.30
2022-09-22T05:22:03.567Z,6.67
2022-09-22T05:24:33.447Z,6.50
2022-09-22T05:27:01.383Z,6.90
2022-09-22T05:29:29.921Z,6.37
2022-09-22T05:31:57.895Z,6.17
2022-09-22T05:34:25.953Z,6.60
2022-09-22T05:36:53.878Z,6.10
2022-09-22T05:39:21.892Z,5.77
2022-09-22T05:41:51.363Z,5.90
2022-09-22T05:44:19.281Z,6.00
2022-09-22T05:46:47.185Z,6.07
2022-09-22T05:49:15.125Z,5.60
2022-09-22T05:51:43.225Z,5.77
2022-09-22T05:54:11.218Z,6.20
2022-09-22T05:56:39.502Z,5.45
2022-09-22T05:59:09.216Z,7.83
2022-09-22T06:01:39.325Z,6.17
2022-09-22T06:04:07.306Z,6.67
2022-09-22T06:06:35.623Z,5.70
2022-09-22T06:09:03.617Z,5.43
2022-09-22T06:11:31.545Z,6.53
2022-09-22T06:13:59.625Z,5.70
2022-09-22T06:16:29.056Z,6.17
2022-09-22T06:18:57.183Z,6.53
2022-09-22T06:21:25.976Z,5.50
2022-09-22T06:23:54.433Z,5.37
2022-09-22T06:26:22.356Z,5.07
2022-09-22T06:28:50.774Z,8.02
2022-09-22T06:31:18.941Z,6.38
2022-09-22T06:33:50.158Z,5.38
2022-09-22T06:36:24.150Z,6.25
2022-09-22T06:41:21.230Z,6.13
2022-09-22T06:43:50.352Z,5.10
2022-09-22T06:46:20.643Z,6.45
2022-09-22T06:48:54.147Z,6.18
2022-09-22T06:51:22.506Z,6.63
2022-09-22T06:53:58.540Z,6.20
2022-09-22T06:56:28.277Z,5.93
2022-09-22T06:59:09.928Z,6.72
2022-09-22T07:01:39.089Z,6.25
2022-09-22T07:04:09.192Z,6.28
2022-09-22T07:06:38.000Z,6.38
2022-09-22T07:09:07.293Z,6.30
2022-09-22T07:11:39.800Z,5.77
2022-09-22T07:14:09.252Z,7.50
2022-09-22T07:16:37.786Z,5.90
2022-09-22T07:19:06.259Z,6.65
2022-09-22T07:21:38.410Z,5.85
2022-09-22T07:24:08.410Z,5.85
2022-09-22T07:26:39.779Z,6.50
2022-09-22T07:29:11.702Z,5.32
2022-09-22T07:31:41.118Z,6.80
2022-09-22T07:34:09.300Z,6.75
2022-09-22T07:36:41.091Z,6.53
2022-09-22T07:39:11.317Z,6.35
2022-09-22T07:41:43.371Z,6.47
2022-09-22T07:44:30.402Z,6.43
2022-09-22T07:46:58.648Z,8.10
2022-09-22T07:49:26.638Z,6.97
2022-09-22T07:51:57.334Z,7.43
2022-09-22T07:54:27.071Z,8.13
2022-09-22T07:56:58.711Z,7.63
2022-09-22T07:59:27.727Z,8.82
2022-09-22T08:01:56.175Z,8.70
2022-09-22T08:04:26.615Z,6.72
2022-09-22T08:06:56.652Z,7.75
2022-09-22T08:09:26.107Z,8.32
2022-09-22T08:11:55.187Z,7.40
2022-09-22T08:14:24.343Z,6.97
2022-09-22T08:16:53.877Z,4.60
2022-09-22T08:19:23.959Z,6.32
2022-09-22T08:21:54.360Z,6.97
2022-09-22T08:24:24.777Z,4.65
2022-09-22T08:26:54.942Z,8.88
2022-09-22T08:29:23.741Z,5.38
2022-09-22T08:31:52.013Z,5.43
2022-09-22T08:34:20.340Z,5.55
2022-09-22T08:36:48.972Z,4.30
2022-09-22T08:39:18.461Z,4.45
2022-09-22T08:42:00.333Z,4.75
2022-09-22T08:44:32.921Z,4.15
2022-09-22T08:47:03.043Z,4.85
2022-09-22T08:49:54.839Z,4.15
2022-09-22T08:52:31.161Z,3.78
2022-09-22T08:55:00.860Z,4.55
2022-09-22T08:57:46.740Z,3.97
2022-09-22T09:00:17.524Z,4.00
2022-09-22T09:02:49.475Z,4.28
2022-09-22T09:05:54.705Z,4.85
2022-09-22T09:08:48.615Z,4.75
2022-09-22T09:11:30.036Z,6.60
2022-09-22T09:14:12.114Z,5.43
2022-09-22T09:16:47.606Z,5.35
2022-09-22T09:19:20.148Z,5.13
2022-09-22T09:21:52.897Z,5.85
2022-09-22T09:27:22.239Z,7.22
2022-09-22T09:30:00.683Z,4.90
2022-09-22T09:32:35.037Z,4.97
2022-09-22T09:37:34.361Z,4.93
2022-09-22T09:40:04.597Z,4.90
2022-09-22T09:42:36.980Z,5.72
2022-09-22T09:45:13.673Z,4.55
2022-09-22T09:48:01.975Z,4.47
2022-09-22T09:50:32.550Z,5.03
2022-09-22T09:53:01.181Z,4.65
2022-09-22T09:55:29.614Z,4.40
2022-09-22T09:58:07.070Z,4.63
2022-09-22T10:00:54.000Z,4.50
2022-09-22T10:03:28.507Z,3.80
2022-09-22T10:06:02.826Z,4.20
2022-09-22T10:08:36.941Z,4.15
2022-09-22T10:11:06.086Z,4.15
2022-09-22T10:13:36.471Z,3.80
2022-09-22T10:16:22.201Z,3.90
2022-09-22T10:18:52.317Z,3.28
2022-09-22T10:21:21.669Z,3.88
2022-09-22T10:23:51.100Z,4.65
2022-09-22T10:26:26.650Z,3.85
2022-09-22T10:29:18.524Z,4.43
2022-09-22T10:32:15.113Z,3.88
2022-09-22T10:37:26.053Z,4.47
2022-09-22T10:39:55.705Z,4.82
2022-09-22T10:42:34.413Z,4.70
2022-09-22T10:45:07.305Z,4.47
2022-09-22T10:47:49.187Z,5.00
2022-09-22T10:50:36.803Z,3.78
2022-09-22T10:53:22.085Z,3.80
2022-09-22T10:55:55.948Z,4.07
2022-09-22T11:01:09.438Z,5.13
2022-09-22T11:04:03.737Z,3.92
2022-09-22T11:07:07.494Z,6.15
2022-09-22T11:09:59.319Z,4.93
2022-09-22T11:12:38.979Z,3.50
2022-09-22T11:15:34.173Z,5.72
2022-09-22T11:18:27.930Z,4.78
2022-09-22T11:21:07.884Z,4.22
2022-09-22T11:24:06.626Z,3.88
2022-09-22T11:26:48.576Z,3.58
2022-09-22T11:29:50.880Z,3.60
2022-09-22T11:32:42.109Z,4.03
2022-09-22T11:35:42.113Z,4.00
2022-09-22T11:38:29.926Z,3.83
2022-09-22T11:41:14.436Z,4.50
2022-09-22T11:44:04.264Z,3.83
2022-09-22T11:46:47.926Z,3.53
2022-09-22T11:49:30.526Z,3.85
2022-09-22T11:52:16.507Z,3.67
2022-09-22T11:55:05.313Z,3.75
2022-09-22T11:57:38.796Z,4.05
2022-09-22T12:00:16.539Z,4.40
2022-09-22T12:02:50.083Z,3.53
2022-09-22T12:05:22.248Z,3.53
2022-09-22T12:07:56.364Z,3.13
2022-09-22T12:10:33.641Z,3.70
2022-09-22T12:13:02.898Z,2.85
2022-09-22T12:15:38.189Z,4.32
2022-09-22T12:18:11.489Z,2.72
2022-09-22T12:20:49.377Z,3.60
2022-09-22T12:23:32.380Z,3.38
2022-09-22T12:26:06.143Z,3.70
2022-09-22T12:31:13.096Z,5.18
2022-09-22T12:36:17.343Z,3.38
2022-09-22T12:38:46.169Z,3.00
2022-09-22T12:41:21.597Z,3.80
2022-09-22T12:43:50.215Z,3.13
2022-09-22T12:46:25.875Z,3.58
2022-09-22T12:48:54.314Z,3.92
2022-09-22T12:51:33.897Z,3.00
2022-09-22T12:54:39.154Z,3.13
2022-09-22T12:57:28.045Z,2.30
2022-09-22T12:59:59.930Z,7.70
2022-09-22T13:02:31.711Z,2.85
2022-09-22T13:05:37.653Z,2.72
2022-09-22T13:08:06.287Z,2.15
2022-09-22T13:10:59.335Z,3.65
2022-09-22T13:13:43.330Z,3.42
2022-09-22T13:16:34.720Z,2.63
2022-09-22T13:19:04.946Z,2.55
2022-09-22T13:21:35.053Z,2.90
2022-09-22T13:24:05.340Z,4.88
2022-09-22T13:26:35.835Z,2.05
2022-09-22T13:29:12.546Z,5.15
2022-09-22T13:31:43.265Z,2.90
2022-09-22T13:34:36.270Z,3.70
2022-09-22T13:39:43.439Z,3.80
2022-09-22T13:42:19.784Z,2.85
2022-09-22T13:44:56.099Z,3.22
2022-09-22T13:47:27.217Z,3.40
2022-09-22T13:49:58.255Z,3.17
2022-09-22T13:52:30.236Z,3.95
2022-09-22T13:55:01.804Z,2.95
2022-09-22T13:57:32.230Z,3.10
2022-09-22T14:00:02.292Z,3.15
2022-09-22T14:02:32.652Z,3.25
2022-09-22T14:05:04.006Z,3.25
2022-09-22T14:07:45.048Z,2.97
2022-09-22T14:10:19.738Z,2.78
2022-09-22T14:12:48.929Z,2.97
2022-09-22T14:15:44.046Z,4.70
2022-09-22T14:18:21.146Z,3.47
2022-09-22T14:20:49.596Z,3.22
2022-09-22T14:23:24.975Z,2.63
2022-09-22T14:25:53.075Z,3.10
2022-09-22T14:28:26.301Z,3.47
2022-09-22T14:30:56.258Z,3.25
2022-09-22T14:33:28.817Z,2.83
2022-09-22T14:36:02.092Z,2.38
2022-09-22T14:38:34.488Z,3.25
2022-09-22T14:41:03.193Z,3.10
2022-09-22T14:43:35.599Z,2.47
2022-09-22T14:46:22.940Z,3.95
2022-09-22T14:48:51.656Z,6.70
2022-09-22T14:51:21.540Z,4.28
2022-09-22T14:53:52.831Z,3.08
2022-09-22T14:56:27.762Z,2.67
2022-09-22T14:58:58.060Z,2.63
2022-09-22T15:01:48.606Z,4.93
2022-09-22T15:04:21.310Z,3.05
2022-09-22T15:06:50.355Z,3.65
2022-09-22T15:09:25.535Z,3.33
2022-09-22T15:11:54.920Z,3.33
2022-09-22T15:14:41.405Z,2.55
2022-09-22T15:17:54.941Z,3.58
2022-09-22T15:20:25.029Z,3.50
2022-09-22T15:22:54.211Z,3.20
2022-09-22T15:25:22.770Z,3.10
2022-09-22T15:27:53.490Z,2.28
2022-09-22T15:30:22.945Z,3.05
2022-09-22T15:32:52.340Z,2.90
2022-09-22T15:35:20.956Z,3.78
2022-09-22T15:37:50.953Z,6.43
2022-09-22T15:40:21.402Z,2.90
2022-09-22T15:43:09.042Z,4.43
2022-09-22T15:45:38.964Z,3.78
2022-09-22T15:48:10.443Z,3.72
2022-09-22T15:50:39.082Z,3.60
2022-09-22T15:53:07.030Z,3.17
2022-09-22T15:55:35.268Z,3.78
2022-09-22T15:58:07.474Z,3.67
2022-09-22T16:00:36.630Z,4.20
2022-09-22T16:03:15.754Z,4.85
2022-09-22T16:05:44.954Z,3.67
2022-09-22T16:08:16.748Z,3.40
2022-09-22T16:10:46.214Z,3.83
2022-09-22T16:13:14.360Z,4.68
2022-09-22T16:15:42.367Z,12.00
2022-09-22T16:18:11.790Z,6.60
2022-09-22T16:20:39.781Z,5.45
2022-09-22T16:23:07.860Z,4.70
2022-09-22T16:25:35.912Z,5.03
2022-09-22T16:28:04.869Z,4.60
2022-09-22T16:30:32.879Z,3.35
2022-09-22T16:33:01.005Z,4.00
2022-09-22T16:35:30.281Z,3.63
2022-09-22T16:37:58.332Z,4.82
2022-09-22T16:40:29.628Z,4.75
2022-09-22T16:42:57.715Z,7.45
2022-09-22T16:45:43.361Z,6.28
2022-09-22T16:48:11.350Z,6.95
2022-09-22T16:50:43.476Z,6.38
2022-09-22T16:53:14.479Z,4.72
2022-09-22T16:55:49.553Z,4.50
2022-09-22T16:58:17.550Z,4.45
2022-09-22T17:00:45.547Z,3.53
2022-09-22T17:03:13.514Z,4.00
2022-09-22T17:05:42.813Z,4.82
2022-09-22T17:08:11.032Z,3.28
2022-09-22T17:10:38.936Z,4.05
2022-09-22T17:13:07.928Z,4.65
2022-09-22T17:15:36.877Z,2.95
2022-09-22T17:18:05.277Z,3.28
2022-09-22T17:20:33.206Z,3.30
2022-09-22T17:23:02.757Z,3.60
2022-09-22T17:25:30.670Z,3.03
2022-09-22T17:27:59.150Z,4.00
2022-09-22T17:30:27.071Z,3.08
2022-09-22T17:32:55.011Z,3.42
2022-09-22T17:35:22.926Z,3.40
2022-09-22T17:37:52.459Z,2.85
2022-09-22T17:40:22.846Z,3.22
2022-09-22T17:42:50.834Z,2.92
2022-09-22T17:45:18.895Z,4.35
2022-09-22T17:48:04.554Z,3.88
2022-09-22T17:50:50.009Z,3.83
2022-09-22T17:53:35.424Z,3.90
2022-09-22T17:56:05.862Z,4.38
2022-09-22T17:58:34.051Z,4.15
2022-09-22T18:01:02.119Z,4.20
2022-09-22T18:03:30.057Z,5.05
2022-09-22T18:05:58.502Z,5.35
2022-09-22T18:08:26.504Z,6.22
2022-09-22T18:10:54.492Z,5.85
2022-09-22T18:13:23.766Z,7.93
2022-09-22T18:15:52.375Z,5.65
2022-09-22T18:18:20.413Z,5.80
2022-09-22T18:20:48.487Z,4.20
2022-09-22T18:23:16.793Z,5.28
2022-09-22T18:25:45.818Z,5.72
2022-09-22T18:28:13.815Z,3.92
2022-09-22T18:30:43.369Z,10.32
2022-09-22T18:33:13.539Z,9.93
2022-09-22T18:35:45.984Z,7.70
2022-09-22T18:38:14.194Z,4.50
2022-09-22T18:40:42.345Z,4.47
2022-09-22T18:43:10.492Z,5.43
2022-09-22T18:45:38.801Z,5.55
2022-09-22T18:48:08.268Z,3.88
2022-09-22T18:50:36.410Z,3.97
2022-09-22T18:53:04.393Z,4.50
2022-09-22T18:55:32.572Z,3.70
2022-09-22T18:58:01.124Z,4.10
2022-09-22T19:00:29.293Z,4.03
2022-09-22T19:02:58.515Z,3.50
2022-09-22T19:05:28.504Z,3.75
2022-09-22T19:07:59.456Z,3.45
2022-09-22T19:10:27.604Z,7.63
2022-09-22T19:12:55.616Z,3.85
2022-09-22T19:15:25.377Z,3.88
2022-09-22T19:17:53.295Z,4.70
2022-09-22T19:20:24.154Z,7.80
2022-09-22T19:22:54.137Z,5.07
2022-09-22T19:25:23.174Z,4.75
2022-09-22T19:27:52.385Z,4.15
2022-09-22T19:30:23.387Z,3.95
2022-09-22T19:32:52.765Z,6.90
2022-09-22T19:35:21.837Z,5.22
2022-09-22T19:37:51.928Z,4.40
2022-09-22T19:40:24.486Z,4.78
2022-09-22T19:42:53.222Z,4.75
2022-09-22T19:45:21.483Z,5.47
2022-09-22T19:47:49.405Z,4.43
2022-09-22T19:50:18.028Z,6.22
2022-09-22T19:52:45.961Z,4.70
2022-09-22T19:55:16.122Z,4.80
2022-09-22T19:57:48.819Z,4.80
2022-09-22T20:00:18.344Z,5.27
2022-09-22T20:02:46.498Z,4.88
2022-09-22T20:05:22.485Z,5.53
2022-09-22T20:07:50.553Z,4.72
2022-09-22T20:10:22.560Z,4.03
2022-09-22T20:12:52.783Z,5.87
2022-09-22T20:15:20.919Z,5.75
2022-09-22T20:17:49.110Z,4.00
2022-09-22T20:20:19.766Z,5.47
2022-09-22T20:22:48.769Z,4.65
2022-09-22T20:25:25.000Z,5.30
2022-09-22T20:27:56.206Z,4.72
2022-09-22T20:30:24.421Z,5.43
2022-09-22T20:32:52.385Z,5.27
2022-09-22T20:35:21.970Z,4.53
2022-09-22T20:37:51.610Z,4.90
2022-09-22T20:40:22.148Z,5.53
2022-09-22T20:42:51.586Z,6.20
2022-09-22T20:45:22.968Z,5.77
2022-09-22T20:47:50.943Z,6.20
2022-09-22T20:50:19.732Z,5.23
2022-09-22T20:52:48.006Z,6.97
2022-09-22T20:55:17.250Z,7.43
2022-09-22T20:57:45.181Z,7.17
2022-09-22T21:00:15.407Z,8.73
2022-09-22T21:02:44.962Z,7.17
2022-09-22T21:05:12.957Z,5.73
2022-09-22T21:07:40.972Z,9.13
2022-09-22T21:10:27.138Z,7.20
2022-09-22T21:12:56.651Z,5.80
2022-09-22T21:15:24.693Z,4.50
2022-09-22T21:17:54.041Z,5.13
2022-09-22T21:20:22.072Z,5.85
2022-09-22T21:22:50.036Z,4.73
2022-09-22T21:25:18.077Z,5.23
2022-09-22T21:27:47.152Z,4.43
2022-09-22T21:30:15.277Z,4.97
2022-09-22T21:32:43.221Z,4.07
2022-09-22T21:35:16.841Z,4.03
2022-09-22T21:37:45.157Z,3.15
2022-09-22T21:40:13.348Z,3.90
2022-09-22T21:42:41.508Z,4.63
2022-09-22T21:45:10.643Z,4.27
2022-09-22T21:47:38.613Z,4.30
2022-09-22T21:50:07.698Z,4.80
2022-09-22T21:52:38.738Z,2.83
2022-09-22T21:55:08.186Z,3.80
2022-09-22T21:57:36.116Z,4.27
2022-09-22T22:00:05.741Z,4.97
2022-09-22T22:02:53.676Z,3.07
2022-09-22T22:05:21.593Z,2.53
2022-09-22T22:07:50.924Z,3.03
2022-09-22T22:10:19.256Z,2.70
2022-09-22T22:12:47.182Z,2.53
2022-09-22T22:15:15.628Z,3.20
2022-09-22T22:17:43.634Z,3.77
2022-09-22T22:20:11.585Z,4.87
2022-09-22T22:22:39.499Z,4.17
2022-09-22T22:25:17.919Z,3.13
2022-09-22T22:27:46.003Z,3.20
2022-09-22T22:30:14.495Z,2.80
2022-09-22T22:32:42.492Z,3.10
2022-09-22T22:35:11.772Z,1.90
2022-09-22T22:37:40.005Z,2.27
2022-09-22T22:40:10.454Z,2.40
2022-09-22T22:42:38.432Z,3.13
2022-09-22T22:45:07.103Z,2.00
2022-09-22T22:47:35.050Z,2.63
2022-09-22T22:50:02.983Z,2.73
2022-09-22T22:52:31.372Z,2.50
2022-09-22T22:54:59.290Z,3.50
2022-09-22T22:57:28.885Z,3.00
2022-09-22T22:59:57.191Z,3.67
2022-09-22T23:02:25.205Z,2.63
2022-09-22T23:04:53.719Z,3.13
2022-09-22T23:07:21.681Z,2.53
2022-09-22T23:10:06.161Z,2.37
2022-09-22T23:12:36.322Z,3.10
2022-09-22T23:15:04.763Z,2.83
2022-09-22T23:17:33.503Z,2.37
2022-09-22T23:20:01.418Z,4.23
2022-09-22T23:22:29.358Z,2.00
2022-09-22T23:24:57.393Z,2.27
2022-09-22T23:27:25.640Z,2.80
2022-09-22T23:29:54.946Z,2.97
2022-09-22T23:32:23.748Z,2.53
2022-09-22T23:34:51.669Z,2.57
2022-09-22T23:37:19.782Z,2.53
2022-09-22T23:39:47.692Z,2.53
2022-09-22T23:42:16.022Z,2.40
2022-09-22T23:44:43.946Z,2.40
2022-09-22T23:47:16.206Z,2.40
2022-09-22T23:49:44.731Z,2.33
2022-09-22T23:52:12.827Z,3.30
2022-09-22T23:54:40.804Z,2.80
2022-09-22T23:57:08.753Z,3.00
2022-09-22T23:59:36.711Z,5.97
